Corinthiakos — A8UL2 — position and weather

sailwx.info

Track history (hours):
 
Tides and Currents Weather Stations Pressure Air Temp Water Temp Dewpoint Dewpoint Depression Visibility Wind Speed Wind Dir Waves Ship Positions

Corinthiakos

Last reported at 2015-May-04 01:33 UTC. Time now 2015-May-04 01:58 UTC.
Position N 32°42' E 123°49'.

Length 262 m; draft 8.4 m.

Type: Cargo ship. MMSI: 636014516.

Date/timePositionNaut miles runAvg speedWind from/ knotsBaromVisibWave heightAir tempDewpointWater temp
2015-May-04 01:33N 32°42' E 123°49'1713.6
2015-May-04 00:20N 32°25' E 123°51'1013.1
2015-May-03 23:33N 32°15' E 123°53'46512.5
2015-May-02 10:32N 25°16' E 120°05'4815.7
2015-May-02 07:27N 24°43' E 119°26'3014.6
2015-May-02 05:25N 24°23' E 119°02'1313.6
2015-May-02 04:27N 24°15' E 118°51'1813.6
2015-May-02 03:06N 24°02' E 118°36'1013.8
2015-May-02 02:21N 23°55' E 118°28'4414.6
2015-May-01 23:20N 23°26' E 117°52'  
2015-Apr-27 08:33N 01°17' E 104°17'1313.2
2015-Apr-27 07:33N 01°15' E 104°04'1313.5
2015-Apr-27 06:33N 01°11' E 103°51'8 8.1
2015-Apr-27 05:33N 01°17' E 103°45'1 1.0
2015-Apr-27 04:05N 01°17' E 103°46'0 0.0
2015-Apr-27 03:29N 01°17' E 103°46'0 0.0
2015-Apr-27 01:32N 01°17' E 103°46'0 0.0
2015-Apr-27 00:32N 01°17' E 103°46'0 0.0
2015-Apr-26 23:34N 01°17' E 103°46'0 0.0
2015-Apr-26 22:33N 01°17' E 103°46'0 0.0
2015-Apr-26 21:33N 01°17' E 103°46'0 0.0
2015-Apr-26 20:33N 01°17' E 103°46'0 0.0
2015-Apr-26 19:33N 01°17' E 103°46'1 1.1
2015-Apr-26 18:30N 01°16' E 103°45'6 6.2
2015-Apr-26 17:31N 01°13' E 103°40'56 7.7
2015-Apr-26 10:16N 01°36' E 102°50'913.0
2015-Apr-26 09:33N 01°40' E 102°41'1313.4
2015-Apr-26 08:33N 01°46' E 102°29'1414.0
2015-Apr-26 07:33N 01°52' E 102°17'1414.0
2015-Apr-26 06:33N 02°01' E 102°06'  
Track history (hours):
 
Tides and Currents Weather Stations Pressure Air Temp Water Temp Dewpoint Dewpoint Depression Visibility Wind Speed Wind Dir Waves Ship Positions

Corinthiakos

Last reported at 2015-May-04 01:33 UTC. Time now 2015-May-04 01:58 UTC.
Position N 32°42' E 123°49'.

Length 262 m; draft 8.4 m.

Type: Cargo ship. MMSI: 636014516.

Date/timePositionNaut miles runAvg speedWind from/ knotsBaromVisibWave heightAir tempDewpointWater temp
2015-May-04 01:33N 32°42' E 123°49'1713.6
2015-May-04 00:20N 32°25' E 123°51'1013.1
2015-May-03 23:33N 32°15' E 123°53'46512.5
2015-May-02 10:32N 25°16' E 120°05'4815.7
2015-May-02 07:27N 24°43' E 119°26'3014.6
2015-May-02 05:25N 24°23' E 119°02'1313.6
2015-May-02 04:27N 24°15' E 118°51'1813.6
2015-May-02 03:06N 24°02' E 118°36'1013.8
2015-May-02 02:21N 23°55' E 118°28'4414.6
2015-May-01 23:20N 23°26' E 117°52'  
2015-Apr-27 08:33N 01°17' E 104°17'1313.2
2015-Apr-27 07:33N 01°15' E 104°04'1313.5
2015-Apr-27 06:33N 01°11' E 103°51'8 8.1
2015-Apr-27 05:33N 01°17' E 103°45'1 1.0
2015-Apr-27 04:05N 01°17' E 103°46'0 0.0
2015-Apr-27 03:29N 01°17' E 103°46'0 0.0
2015-Apr-27 01:32N 01°17' E 103°46'0 0.0
2015-Apr-27 00:32N 01°17' E 103°46'0 0.0
2015-Apr-26 23:34N 01°17' E 103°46'0 0.0
2015-Apr-26 22:33N 01°17' E 103°46'0 0.0
2015-Apr-26 21:33N 01°17' E 103°46'0 0.0
2015-Apr-26 20:33N 01°17' E 103°46'0 0.0
2015-Apr-26 19:33N 01°17' E 103°46'1 1.1
2015-Apr-26 18:30N 01°16' E 103°45'6 6.2
2015-Apr-26 17:31N 01°13' E 103°40'56 7.7
2015-Apr-26 10:16N 01°36' E 102°50'913.0
2015-Apr-26 09:33N 01°40' E 102°41'1313.4
2015-Apr-26 08:33N 01°46' E 102°29'1414.0
2015-Apr-26 07:33N 01°52' E 102°17'1414.0
2015-Apr-26 06:33N 02°01' E 102°06'  

Dump ship's entire track history